« Back
NWS Peachtree City, Ga » Text Product » AHN Terminal Aerodrome Forecast


Printer-friendly Version
Current Version              Previous Versions:   1  2  3  4  5  6  7  8  9  

Terminal Aerodrome Forecast

937
FTUS42 KFFC 210500
TAFAHN
TAF
KAHN 210522Z 2106/2206 05005KT P6SM FEW250
     FM211200 01003KT P6SM FEW250
     FM211500 28006KT P6SM FEW050 SCT120
     FM212300 23004KT P6SM FEW120=



USA.gov is the U.S. government's official web portal to all federal, state and local government web resources and services.